Time;durP1;ratioP1;P1;durP2;ratioP2;P2;SDS_P1;SDS_P2;PMS_P1;PMS_P2;Temp;Humidity;BMP_temperature;BMP_pressure;BME280_temperature;BME280_humidity;BME280_pressure;Samples;Min_cycle;Max_cycle;Signal;HPM_P1;HPM_P2
2022/03/21 00:01:39;;;;;;;3.65;2.60;;;;;;;20.83;nan;100473.06;5112589;28;20039;-50
2022/03/21 00:04:04;;;;;;;3.22;2.38;;;;;;;21.38;nan;100475.16;5112184;28;20152;-50
2022/03/21 00:06:30;;;;;;;3.15;2.40;;;;;;;22.29;nan;100477.31;5112538;28;20487;-49
2022/03/21 00:08:55;;;;;;;3.63;2.60;;;;;;;23.23;nan;100472.78;5112162;28;20047;-48
2022/03/21 00:11:21;;;;;;;3.42;2.42;;;;;;;23.70;nan;100477.34;5112292;28;20047;-49
2022/03/21 00:13:49;;;;;;;3.65;2.55;;;;;;;23.23;nan;100476.38;5112406;28;20515;-48
2022/03/21 00:16:15;;;;;;;3.88;2.60;;;;;;;22.73;nan;100475.19;5112244;28;20055;-51
2022/03/21 00:18:41;;;;;;;3.70;2.30;;;;;;;22.38;nan;100474.31;5112211;28;20036;-49
2022/03/21 00:21:06;;;;;;;3.42;2.35;;;;;;;22.06;nan;100477.03;5112155;28;20051;-49
2022/03/21 00:23:32;;;;;;;3.08;2.25;;;;;;;21.86;nan;100483.66;5112073;28;20050;-52
2022/03/21 00:25:58;;;;;;;3.33;2.20;;;;;;;21.66;nan;100477.97;5111897;28;20043;-48
2022/03/21 00:28:23;;;;;;;3.38;2.40;;;;;;;21.54;nan;100477.19;5111877;28;20071;-59
2022/03/21 00:30:49;;;;;;;3.13;2.33;;;;;;;21.45;nan;100487.69;5112170;28;20036;-59
2022/03/21 00:33:14;;;;;;;3.42;2.45;;;;;;;21.33;nan;100480.97;5112057;28;20079;-59
2022/03/21 00:35:45;;;;;;;3.50;2.60;;;;;;;21.27;nan;100485.13;5111963;28;20067;-59
2022/03/21 00:38:15;;;;;;;3.17;2.17;;;;;;;21.22;nan;100493.75;5111906;28;20403;-59
2022/03/21 00:40:41;;;;;;;3.67;2.60;;;;;;;21.19;nan;100493.63;5111760;28;20052;-59
2022/03/21 00:43:07;;;;;;;3.58;2.38;;;;;;;21.11;nan;100485.06;5111733;28;20054;-59
2022/03/21 00:45:32;;;;;;;3.38;2.63;;;;;;;21.12;nan;100500.59;5111820;28;20048;-59
2022/03/21 00:47:58;;;;;;;3.25;2.40;;;;;;;21.10;nan;100504.88;5111826;28;20055;-59
2022/03/21 00:50:24;;;;;;;3.72;2.60;;;;;;;21.09;nan;100497.72;5111709;28;20039;-59
2022/03/21 00:52:53;;;;;;;3.58;2.50;;;;;;;21.07;nan;100502.78;5111834;28;20142;-59
2022/03/21 00:55:20;;;;;;;3.13;2.20;;;;;;;21.04;nan;100501.53;5111752;28;20043;-59
2022/03/21 00:57:46;;;;;;;3.03;2.05;;;;;;;21.05;nan;100502.34;5111519;28;20051;-59
2022/03/21 01:00:20;;;;;;;3.45;2.35;;;;;;;21.00;nan;100497.00;5111436;28;20048;-59
2022/03/21 01:02:47;;;;;;;4.25;2.60;;;;;;;21.03;nan;100510.22;5111361;28;20511;-59
2022/03/21 01:05:12;;;;;;;3.50;2.50;;;;;;;21.01;nan;100509.78;5110520;28;20469;-59
2022/03/21 01:07:39;;;;;;;3.53;2.40;;;;;;;21.01;nan;100512.56;5111476;28;20096;-59
2022/03/21 01:10:06;;;;;;;3.83;2.75;;;;;;;21.00;nan;100505.34;5111300;28;20066;-59
2022/03/21 01:12:32;;;;;;;3.20;2.33;;;;;;;20.98;nan;100505.72;5111470;28;20050;-59
2022/03/21 01:14:58;;;;;;;3.42;2.47;;;;;;;20.99;nan;100500.94;5111435;28;20047;-59
2022/03/21 01:17:23;;;;;;;3.47;2.45;;;;;;;20.99;nan;100501.75;5111407;28;20052;-59
2022/03/21 01:19:49;;;;;;;3.75;2.70;;;;;;;21.00;nan;100508.94;5111334;28;20499;-59
2022/03/21 01:22:14;;;;;;;3.67;2.72;;;;;;;20.98;nan;100507.69;5111080;28;20074;-59
2022/03/21 01:24:41;;;;;;;3.30;2.20;;;;;;;20.99;nan;100509.28;5111069;28;20126;-59
2022/03/21 01:27:07;;;;;;;3.55;2.80;;;;;;;20.98;nan;100511.28;5111124;28;20047;-59
2022/03/21 01:29:33;;;;;;;4.32;2.88;;;;;;;20.99;nan;100512.06;5111185;28;20062;-59
2022/03/21 01:31:58;;;;;;;3.63;2.40;;;;;;;20.99;nan;100515.66;5111022;28;20411;-59
2022/03/21 01:34:24;;;;;;;3.58;2.50;;;;;;;21.00;nan;100514.50;5111085;28;20503;-58
2022/03/21 01:36:50;;;;;;;3.22;2.40;;;;;;;21.00;nan;100517.28;5110891;28;20056;-59
2022/03/21 01:39:15;;;;;;;3.38;2.40;;;;;;;21.00;nan;100520.06;5108615;28;20055;-59
2022/03/21 01:41:41;;;;;;;3.65;2.78;;;;;;;21.01;nan;100520.91;5111040;28;20036;-59
2022/03/21 01:44:08;;;;;;;3.47;2.20;;;;;;;20.98;nan;100511.28;5110672;28;20044;-59
2022/03/21 01:46:35;;;;;;;3.80;2.53;;;;;;;21.00;nan;100516.47;5110784;28;20126;-50
2022/03/21 01:49:02;;;;;;;3.95;2.45;;;;;;;21.00;nan;100517.28;5110844;28;20419;-48
2022/03/21 01:51:28;;;;;;;4.03;2.50;;;;;;;21.01;nan;100520.91;5091032;28;20047;-50
2022/03/21 01:56:41;;;;;;;3.50;2.38;;;;;;;21.03;nan;100524.13;5110864;28;20126;-49
2022/03/21 01:59:08;;;;;;;3.13;2.30;;;;;;;21.01;nan;100518.13;5110683;28;20138;-49
2022/03/21 02:01:33;;;;;;;3.63;2.42;;;;;;;21.01;nan;100520.91;5110656;28;20557;-48
2022/03/21 02:03:59;;;;;;;3.05;2.22;;;;;;;21.02;nan;100522.53;5110532;28;20044;-50
2022/03/21 02:06:28;;;;;;;3.65;2.55;;;;;;;21.03;nan;100518.56;5110560;28;20040;-49
2022/03/21 02:08:56;;;;;;;4.03;3.00;;;;;;;21.04;nan;100514.63;5110339;28;20146;-48
2022/03/21 02:11:21;;;;;;;3.50;2.60;;;;;;;21.02;nan;100516.97;5110475;28;20104;-48
2022/03/21 02:13:47;;;;;;;3.20;2.17;;;;;;;21.01;nan;100512.56;5110700;28;20040;-51
2022/03/21 02:16:13;;;;;;;3.55;2.60;;;;;;;21.01;nan;100516.16;5110162;28;20096;-51
2022/03/21 02:18:40;;;;;;;4.15;2.83;;;;;;;21.01;nan;100510.59;5110362;28;20051;-48
2022/03/21 02:21:13;;;;;;;3.50;2.50;;;;;;;21.02;nan;100511.41;5110274;28;20131;-48
2022/03/21 02:24:03;;;;;;;4.50;2.53;;;;;;;21.03;nan;100513.00;5110393;28;20051;-49
2022/03/21 02:26:29;;;;;;;3.25;2.55;;;;;;;21.04;nan;100509.06;5110368;28;20039;-48
2022/03/21 02:28:57;;;;;;;3.90;2.72;;;;;;;21.03;nan;100508.25;5110249;28;20453;-49
2022/03/21 02:31:23;;;;;;;3.40;2.55;;;;;;;21.02;nan;100506.66;5110218;28;20279;-48
2022/03/21 02:33:50;;;;;;;3.58;2.53;;;;;;;21.04;nan;100511.84;5110215;28;20043;-49
2022/03/21 02:36:17;;;;;;;3.38;2.35;;;;;;;21.03;nan;100507.44;5110274;28;20052;-50
2022/03/21 02:38:44;;;;;;;3.65;2.50;;;;;;;21.03;nan;100513.00;5110212;28;20036;-48
2022/03/21 02:41:12;;;;;;;3.38;2.42;;;;;;;21.00;nan;100513.69;5110156;28;20055;-51
2022/03/21 02:43:54;;;;;;;3.67;2.67;;;;;;;21.01;nan;100521.72;5109988;28;20040;-49
2022/03/21 02:46:20;;;;;;;3.92;2.75;;;;;;;21.03;nan;100518.56;5109393;28;20042;-51
2022/03/21 02:48:46;;;;;;;3.67;2.70;;;;;;;21.02;nan;100519.75;5110022;28;20047;-48
2022/03/21 02:51:12;;;;;;;3.40;2.50;;;;;;;21.02;nan;100514.97;5109883;28;20143;-49
2022/03/21 02:53:40;;;;;;;3.90;2.85;;;;;;;21.02;nan;100514.97;5109889;28;20453;-51
2022/03/21 02:56:05;;;;;;;3.70;2.70;;;;;;;21.02;nan;100512.22;5110079;28;20428;-48
2022/03/21 02:58:31;;;;;;;3.65;2.63;;;;;;;21.02;nan;100509.44;5109651;28;20523;-49
2022/03/21 03:01:10;;;;;;;3.45;2.50;;;;;;;21.01;nan;100505.03;5110027;28;20048;-49
2022/03/21 03:03:36;;;;;;;3.67;2.50;;;;;;;21.01;nan;100504.22;5109927;28;20090;-48
2022/03/21 03:06:03;;;;;;;3.28;2.42;;;;;;;20.99;nan;100503.72;5109932;28;20067;-48
2022/03/21 03:08:29;;;;;;;3.90;2.80;;;;;;;21.01;nan;100501.44;5109700;28;20093;-48
2022/03/21 03:10:55;;;;;;;3.83;2.80;;;;;;;21.01;nan;100507.00;5109577;28;20404;-48
2022/03/21 03:13:20;;;;;;;3.45;2.65;;;;;;;21.02;nan;100511.41;5109620;28;20039;-48
2022/03/21 03:15:47;;;;;;;3.83;2.70;;;;;;;21.01;nan;100505.03;5109333;28;20134;-49
2022/03/21 03:18:13;;;;;;;3.25;2.50;;;;;;;21.01;nan;100516.16;5109456;28;20044;-48
2022/03/21 03:20:53;;;;;;;4.18;2.80;;;;;;;21.01;nan;100516.16;5109701;28;20042;-49
2022/03/21 03:23:20;;;;;;;4.22;2.53;;;;;;;21.03;nan;100516.59;5108768;28;20047;-48
2022/03/21 03:26:03;;;;;;;3.67;2.63;;;;;;;21.03;nan;100522.16;5090358;28;20051;-49
2022/03/21 03:28:32;;;;;;;3.85;2.80;;;;;;;21.03;nan;100519.38;5111218;28;20043;-48
2022/03/21 03:30:59;;;;;;;3.55;2.75;;;;;;;21.03;nan;100526.91;5112900;28;20568;-49
2022/03/21 03:33:25;;;;;;;3.80;2.80;;;;;;;21.03;nan;100530.50;5112776;28;20488;-49
2022/03/21 03:35:51;;;;;;;4.00;2.67;;;;;;;21.03;nan;100529.69;5112867;28;20043;-48
2022/03/21 03:38:17;;;;;;;3.75;2.67;;;;;;;21.02;nan;100526.13;5112753;28;20131;-49
2022/03/21 03:40:43;;;;;;;3.38;2.42;;;;;;;21.01;nan;100532.03;5112905;28;20480;-49
2022/03/21 03:43:10;;;;;;;4.05;2.90;;;;;;;21.03;nan;100527.72;5112780;28;20454;-48
2022/03/21 03:45:36;;;;;;;4.10;2.67;;;;;;;21.03;nan;100521.34;5112858;28;20051;-48
2022/03/21 03:48:02;;;;;;;3.83;2.83;;;;;;;21.02;nan;100520.53;5112713;28;20043;-51
2022/03/21 03:50:27;;;;;;;3.47;2.50;;;;;;;21.00;nan;100519.25;5112654;28;20134;-50
2022/03/21 03:52:53;;;;;;;3.60;2.38;;;;;;;21.04;nan;100531.31;5112544;28;20123;-49
2022/03/21 03:55:18;;;;;;;3.95;2.67;;;;;;;21.04;nan;100528.53;5112564;28;20043;-49
2022/03/21 03:57:45;;;;;;;3.85;2.88;;;;;;;21.03;nan;100530.50;5112571;28;20048;-50
2022/03/21 04:00:12;;;;;;;3.58;2.70;;;;;;;21.02;nan;100531.69;5112719;28;20134;-48
2022/03/21 04:05:38;;;;;;;3.67;2.47;;;;;;;21.04;nan;100536.88;5029854;28;20077;-58
2022/03/21 04:08:04;;;;;;;4.07;2.50;;;;;;;21.02;nan;100531.69;5029549;28;20548;-59
2022/03/21 04:10:30;;;;;;;3.63;2.30;;;;;;;21.04;nan;100534.09;5029753;28;20046;-59
2022/03/21 04:12:55;;;;;;;3.70;2.80;;;;;;;21.04;nan;100529.34;5029547;28;20037;-59
2022/03/21 04:15:22;;;;;;;3.47;2.30;;;;;;;21.05;nan;100532.94;5029691;28;20045;-59
2022/03/21 04:17:48;;;;;;;3.63;2.55;;;;;;;21.03;nan;100533.28;5029484;28;20053;-59
2022/03/21 04:20:14;;;;;;;3.60;2.65;;;;;;;21.04;nan;100537.69;5029397;28;20110;-59
2022/03/21 04:22:40;;;;;;;3.05;2.10;;;;;;;21.04;nan;100537.69;5029340;28;20053;-59
2022/03/21 04:25:07;;;;;;;3.25;2.30;;;;;;;21.02;nan;100536.44;5029319;28;20052;-58
2022/03/21 04:27:33;;;;;;;3.40;2.60;;;;;;;21.04;nan;100537.69;5029084;28;20041;-59
2022/03/21 04:30:00;;;;;;;3.53;2.33;;;;;;;21.05;nan;100549.63;5029100;28;20140;-48
2022/03/21 04:32:26;;;;;;;3.35;2.50;;;;;;;21.04;nan;100548.00;5029088;28;20081;-49
2022/03/21 04:34:52;;;;;;;3.42;2.40;;;;;;;21.02;nan;100544.78;5029057;28;20037;-48
2022/03/21 04:37:17;;;;;;;3.50;2.50;;;;;;;21.02;nan;100545.59;5029275;28;20433;-48
2022/03/21 04:39:43;;;;;;;3.75;2.60;;;;;;;21.05;nan;100546.84;5071135;28;20047;-50
2022/03/21 04:42:08;;;;;;;3.65;2.50;;;;;;;21.05;nan;100546.84;5111854;28;20043;-48
2022/03/21 04:44:34;;;;;;;4.50;2.90;;;;;;;21.06;nan;100551.25;5111742;28;20054;-50
2022/03/21 04:47:00;;;;;;;3.40;2.45;;;;;;;21.00;nan;100550.66;5111770;28;20511;-48
2022/03/21 04:49:25;;;;;;;4.00;2.72;;;;;;;21.05;nan;100557.97;5111716;28;20096;-48
2022/03/21 04:51:50;;;;;;;3.00;2.13;;;;;;;21.03;nan;100555.53;5111785;28;20077;-49
2022/03/21 04:54:16;;;;;;;3.50;2.55;;;;;;;21.05;nan;100553.22;5111690;28;20126;-49
2022/03/21 04:56:42;;;;;;;3.65;2.58;;;;;;;21.05;nan;100558.78;5111768;28;20404;-48
2022/03/21 04:59:07;;;;;;;3.50;2.50;;;;;;;21.04;nan;100559.13;5111853;28;20415;-48
2022/03/21 05:01:33;;;;;;;4.43;2.90;;;;;;;21.03;nan;100557.53;5111821;28;20476;-49
2022/03/21 05:03:59;;;;;;;3.63;2.30;;;;;;;21.05;nan;100564.34;5111432;28;20062;-48
2022/03/21 05:06:25;;;;;;;3.72;2.63;;;;;;;21.05;nan;100563.53;5111314;28;20337;-51
2022/03/21 05:08:51;;;;;;;3.30;2.47;;;;;;;21.04;nan;100557.16;5111565;28;20627;-48
2022/03/21 05:11:16;;;;;;;3.70;2.67;;;;;;;21.04;nan;100559.13;5111346;28;20060;-49
2022/03/21 05:13:41;;;;;;;3.88;2.58;;;;;;;21.04;nan;100561.91;5111384;28;20183;-48
2022/03/21 05:16:07;;;;;;;3.25;2.47;;;;;;;21.04;nan;100561.91;5111368;28;20051;-49
2022/03/21 05:18:35;;;;;;;3.40;2.50;;;;;;;21.03;nan;100569.44;5111253;28;20043;-49
2022/03/21 05:21:05;;;;;;;3.63;2.70;;;;;;;21.04;nan;100564.69;5111510;28;20055;-49
2022/03/21 05:31:44;;;;;;;4.18;2.80;;;;;;;21.02;nan;100572.59;5110906;28;20073;-50
2022/03/21 05:36:54;;;;;;;3.08;2.33;;;;;;;21.03;nan;100582.56;5111266;28;20047;-49
2022/03/21 05:39:20;;;;;;;3.40;2.60;;;;;;;21.03;nan;100579.78;5110849;28;20043;-50
2022/03/21 05:41:46;;;;;;;3.45;2.22;;;;;;;21.03;nan;100579.78;5110991;28;20035;-48
2022/03/21 05:44:11;;;;;;;3.40;2.15;;;;;;;21.07;nan;100594.59;5110919;28;20124;-48
2022/03/21 05:46:37;;;;;;;3.40;2.30;;;;;;;21.77;nan;100588.84;5110801;28;20068;-50
2022/03/21 05:49:03;;;;;;;3.50;2.35;;;;;;;22.56;nan;100597.44;5110704;28;20054;-50
2022/03/21 05:51:33;;;;;;;3.00;2.13;;;;;;;23.36;nan;100588.72;5110198;28;20510;-48
2022/03/21 05:54:05;;;;;;;3.25;2.40;;;;;;;24.00;nan;100592.91;5110712;28;20055;-48
2022/03/21 05:56:32;;;;;;;3.60;2.58;;;;;;;23.54;nan;100595.50;5110602;28;20050;-48
2022/03/21 06:00:20;;;;;;;2.83;2.22;;;;;;;23.08;nan;100593.63;5110549;28;20089;-52
2022/03/21 06:01:44;;;;;;;3.25;2.40;;;;;;;22.64;nan;100585.31;5107554;28;20051;-48
2022/03/21 06:04:09;;;;;;;3.50;2.30;;;;;;;22.39;nan;100593.84;5110575;28;20055;-59
2022/03/21 06:06:35;;;;;;;3.70;2.60;;;;;;;22.15;nan;100602.31;5110699;28;20090;-59
2022/03/21 06:09:00;;;;;;;3.20;2.35;;;;;;;21.98;nan;100606.19;5110636;28;20066;-59
2022/03/21 06:11:26;;;;;;;2.88;2.25;;;;;;;21.86;nan;100617.34;5110544;28;20043;-59
2022/03/21 06:13:51;;;;;;;3.58;2.45;;;;;;;21.76;nan;100612.28;5110454;28;20396;-59
2022/03/21 06:16:17;;;;;;;3.55;2.47;;;;;;;21.68;nan;100608.47;5110325;28;20048;-59
2022/03/21 06:18:42;;;;;;;3.38;2.55;;;;;;;21.63;nan;100611.50;5110323;28;20042;-59
2022/03/21 06:21:09;;;;;;;3.28;2.40;;;;;;;21.57;nan;100616.50;5110278;28;20051;-59
2022/03/21 06:23:35;;;;;;;3.33;2.63;;;;;;;21.53;nan;100614.78;5110312;28;20055;-59
2022/03/21 06:26:01;;;;;;;3.47;2.55;;;;;;;21.50;nan;100626.59;5110437;28;20503;-59
2022/03/21 06:28:28;;;;;;;3.60;2.22;;;;;;;21.47;nan;100624.53;5110344;28;20054;-59
2022/03/21 06:30:54;;;;;;;3.28;2.58;;;;;;;21.45;nan;100629.63;5110024;28;20039;-58
2022/03/21 06:33:21;;;;;;;3.20;2.38;;;;;;;21.42;nan;100631.94;5110093;28;20127;-59
2022/03/21 06:35:48;;;;;;;3.03;2.28;;;;;;;21.42;nan;100637.50;5110282;28;20046;-59
2022/03/21 06:38:14;;;;;;;2.97;2.20;;;;;;;21.40;nan;100642.63;5110120;28;20039;-59
2022/03/21 06:40:42;;;;;;;3.22;2.38;;;;;;;21.38;nan;100630.22;5109797;28;20115;-59
2022/03/21 06:43:08;;;;;;;3.28;2.47;;;;;;;21.38;nan;100639.38;5109659;28;20050;-59
2022/03/21 06:45:34;;;;;;;4.38;2.40;;;;;;;21.37;nan;100640.53;5110167;28;20039;-58
2022/03/21 06:48:00;;;;;;;3.70;2.38;;;;;;;21.39;nan;100637.41;5109938;28;20052;-59
2022/03/21 06:50:25;;;;;;;3.22;2.50;;;;;;;21.41;nan;100649.81;5109818;28;20043;-59
2022/03/21 06:52:52;;;;;;;4.22;2.92;;;;;;;21.38;nan;100658.88;5092931;28;20503;-59
2022/03/21 06:55:19;;;;;;;4.10;2.78;;;;;;;21.40;nan;100656.53;5087656;28;20040;-59
2022/03/21 06:57:45;;;;;;;4.10;2.67;;;;;;;21.39;nan;100660.47;5088131;28;20044;-60
2022/03/21 07:00:13;;;;;;;4.35;2.70;;;;;;;21.37;nan;100662.81;5089510;28;20044;-59
2022/03/21 07:02:39;;;;;;;3.60;2.60;;;;;;;21.39;nan;100668.84;5090108;28;20110;-59
2022/03/21 07:05:07;;;;;;;3.63;2.55;;;;;;;21.37;nan;100673.94;5093211;28;20472;-59
2022/03/21 07:07:33;;;;;;;4.43;2.90;;;;;;;21.37;nan;100679.50;5092986;28;20354;-58
2022/03/21 07:09:58;;;;;;;6.18;2.70;;;;;;;21.38;nan;100675.56;5093260;28;20604;-59
2022/03/21 07:12:23;;;;;;;6.15;2.83;;;;;;;21.38;nan;100683.09;5093067;28;20070;-58
2022/03/21 07:14:49;;;;;;;3.25;2.40;;;;;;;21.39;nan;100679.97;5092922;28;20044;-59
2022/03/21 07:17:21;;;;;;;4.70;2.80;;;;;;;21.37;nan;100676.72;5092813;28;20427;-59
2022/03/21 07:19:47;;;;;;;3.75;2.55;;;;;;;21.40;nan;100672.44;5091821;28;20040;-59
2022/03/21 07:22:15;;;;;;;5.65;2.90;;;;;;;21.40;nan;100678.00;5092622;28;20070;-59
2022/03/21 07:24:41;;;;;;;4.85;2.70;;;;;;;21.37;nan;100676.72;5092641;28;20051;-59
2022/03/21 07:27:07;;;;;;;5.07;2.90;;;;;;;21.38;nan;100683.09;5092805;28;20040;-47
2022/03/21 07:29:33;;;;;;;4.20;2.90;;;;;;;21.38;nan;100680.31;5074369;28;20068;-47
2022/03/21 07:31:58;;;;;;;4.78;2.85;;;;;;;21.39;nan;100684.72;5092604;28;20047;-59
2022/03/21 07:34:24;;;;;;;5.40;2.70;;;;;;;21.37;nan;100675.91;5092586;28;20040;-59
2022/03/21 07:36:50;;;;;;;6.38;3.30;;;;;;;21.37;nan;100676.72;5092262;28;20412;-59
2022/03/21 07:39:16;;;;;;;4.15;2.72;;;;;;;21.38;nan;100678.34;5092273;28;20067;-59
2022/03/21 07:41:42;;;;;;;4.18;2.70;;;;;;;21.37;nan;100679.50;5092617;28;20040;-59
2022/03/21 07:44:08;;;;;;;5.15;2.90;;;;;;;21.38;nan;100674.75;5092329;28;20522;-59
2022/03/21 07:49:17;;;;;;;4.18;2.60;;;;;;;21.38;nan;100681.13;5106357;28;20103;-58
2022/03/21 07:51:43;;;;;;;3.63;2.85;;;;;;;21.37;nan;100689.84;5099129;28;20044;-58
2022/03/21 07:54:10;;;;;;;4.00;2.95;;;;;;;21.36;nan;100682.63;5106072;28;20082;-58
2022/03/21 07:56:37;;;;;;;4.30;2.90;;;;;;;21.37;nan;100679.50;5104655;28;20054;-58
2022/03/21 07:59:03;;;;;;;3.70;2.80;;;;;;;21.39;nan;100688.31;5103524;28;20092;-59
2022/03/21 08:01:29;;;;;;;3.97;2.90;;;;;;;21.36;nan;100691.81;5109861;28;20084;-58
2022/03/21 08:03:57;;;;;;;3.80;2.80;;;;;;;21.37;nan;100696.22;5106399;28;20044;-58
2022/03/21 08:06:23;;;;;;;4.15;3.08;;;;;;;21.39;nan;100690.28;5093768;28;20040;-59
2022/03/21 08:08:49;;;;;;;6.55;2.53;;;;;;;21.38;nan;100686.69;5094765;28;20097;-58
2022/03/21 08:11:15;;;;;;;4.38;2.92;;;;;;;21.38;nan;100695.03;5092838;28;20044;-59
2022/03/21 08:13:42;;;;;;;3.97;2.97;;;;;;;21.37;nan;100684.28;5101162;28;20131;-59
2022/03/21 08:16:07;;;;;;;4.95;3.38;;;;;;;21.38;nan;100689.47;5091646;28;20052;-59
2022/03/21 08:18:33;;;;;;;4.93;2.95;;;;;;;21.37;nan;100682.28;5091910;28;20051;-59
2022/03/21 08:20:58;;;;;;;4.93;2.80;;;;;;;21.37;nan;100684.28;5091785;28;20043;-59
2022/03/21 08:23:24;;;;;;;4.20;3.20;;;;;;;21.36;nan;100685.41;5091652;28;20563;-58
2022/03/21 08:25:49;;;;;;;4.63;3.50;;;;;;;21.35;nan;100681.00;5091570;28;20496;-58
2022/03/21 08:28:15;;;;;;;4.70;3.05;;;;;;;21.38;nan;100680.31;5091946;28;20040;-58
2022/03/21 08:30:41;;;;;;;4.40;3.10;;;;;;;21.37;nan;100679.50;5102902;28;20389;-58
2022/03/21 08:33:09;;;;;;;6.30;3.13;;;;;;;21.37;nan;100673.94;5110423;28;20050;-58
2022/03/21 08:35:37;;;;;;;5.07;3.00;;;;;;;21.37;nan;100681.47;5106534;28;20043;-58
2022/03/21 08:38:04;;;;;;;3.50;2.80;;;;;;;21.39;nan;100670.81;5096417;28;20051;-59
2022/03/21 08:40:30;;;;;;;3.70;2.80;;;;;;;21.38;nan;100683.91;5112271;28;20044;-58
2022/03/21 08:42:56;;;;;;;3.60;2.83;;;;;;;21.39;nan;100670.81;5111855;28;20048;-58
2022/03/21 08:45:21;;;;;;;4.35;3.20;;;;;;;21.38;nan;100681.13;5111021;28;20519;-59
2022/03/21 08:47:48;;;;;;;4.05;2.92;;;;;;;21.38;nan;100681.13;5107458;28;20043;-58
2022/03/21 08:50:13;;;;;;;5.25;2.80;;;;;;;21.40;nan;100678.81;5099032;28;20181;-58
2022/03/21 08:52:39;;;;;;;4.22;3.10;;;;;;;21.39;nan;100662.47;5099229;28;20126;-58
2022/03/21 08:55:05;;;;;;;4.10;2.95;;;;;;;21.39;nan;100668.03;5100720;28;20047;-58
2022/03/21 08:57:31;;;;;;;3.53;2.60;;;;;;;21.41;nan;100669.28;5097111;28;20041;-58
2022/03/21 08:59:57;;;;;;;4.63;3.22;;;;;;;21.40;nan;100667.66;5099244;28;20508;-58
2022/03/21 09:02:22;;;;;;;5.05;2.80;;;;;;;21.40;nan;100661.28;5093623;28;20039;-59
2022/03/21 09:04:48;;;;;;;4.22;2.80;;;;;;;21.41;nan;100649.00;5097307;28;20511;-58
2022/03/21 09:07:14;;;;;;;3.50;2.97;;;;;;;21.42;nan;100651.41;5096129;28;20127;-58
2022/03/21 09:09:40;;;;;;;6.88;2.90;;;;;;;21.42;nan;100648.63;5107527;28;20040;-53
2022/03/21 09:12:07;;;;;;;8.05;3.53;;;;;;;21.41;nan;100635.88;5098882;28;20518;-51
2022/03/21 09:14:34;;;;;;;5.63;3.67;;;;;;;21.36;nan;100633.34;5095737;28;20420;-56
2022/03/21 09:17:00;;;;;;;17.80;13.63;;;;;;;21.35;nan;100637.28;5102562;28;20423;-56
2022/03/21 09:19:27;;;;;;;20.30;14.48;;;;;;;21.26;nan;100642.13;5095801;28;20397;-52
2022/03/21 09:21:53;;;;;;;16.42;13.32;;;;;;;21.27;nan;100640.97;5080450;28;20660;-53
2022/03/21 09:24:20;;;;;;;16.85;11.95;;;;;;;21.28;nan;100631.47;5106418;28;20039;-53
2022/03/21 09:26:45;;;;;;;13.15;10.38;;;;;;;21.30;nan;100628.38;5100519;28;20503;-52
2022/03/21 09:29:11;;;;;;;13.10;9.30;;;;;;;21.29;nan;100630.34;5099788;28;20051;-52
2022/03/21 09:31:39;;;;;;;12.25;9.05;;;;;;;21.27;nan;100626.25;5094432;28;20044;-58
2022/03/21 09:34:05;;;;;;;11.80;7.80;;;;;;;21.28;nan;100625.91;5100823;28;20078;-56
2022/03/21 09:36:30;;;;;;;10.98;7.50;;;;;;;21.29;nan;100623.94;5098468;28;20036;-58
2022/03/21 09:38:56;;;;;;;8.70;6.35;;;;;;;21.33;nan;100624.88;5091990;28;20066;-58
2022/03/21 09:41:26;;;;;;;11.00;6.50;;;;;;;21.32;nan;100618.50;5094540;28;20036;-58
2022/03/21 09:43:54;;;;;;;8.00;6.00;;;;;;;21.32;nan;100610.16;5096034;28;20055;-58
2022/03/21 09:46:20;;;;;;;6.68;5.32;;;;;;;21.31;nan;100616.88;5095884;28;20036;-58
2022/03/21 09:48:52;;;;;;;7.07;5.25;;;;;;;21.30;nan;100609.72;5100423;28;20426;-58
2022/03/21 09:51:19;;;;;;;;;;;;;;;21.34;nan;100605.03;5097862;28;20040;-59
2022/03/21 09:53:45;;;;;;;6.32;4.90;;;;;;;21.33;nan;100605.41;5075473;28;19919;-59
2022/03/21 09:56:13;;;;;;;6.43;4.53;;;;;;;21.30;nan;100603.34;5088828;28;20419;-59
2022/03/21 09:58:39;;;;;;;6.55;4.60;;;;;;;21.26;nan;100605.16;5096235;28;20051;-59
2022/03/21 10:01:05;;;;;;;5.20;4.25;;;;;;;21.24;nan;100604.69;5097517;28;20940;-58
2022/03/21 10:03:33;;;;;;;5.18;4.00;;;;;;;21.22;nan;100591.13;5093521;28;20054;-58
2022/03/21 10:05:59;;;;;;;8.00;4.57;;;;;;;21.21;nan;100589.47;5094145;28;20082;-58
2022/03/21 10:08:28;;;;;;;6.28;4.00;;;;;;;21.17;nan;100594.94;5098234;28;20044;-58
2022/03/21 10:10:55;;;;;;;5.10;3.50;;;;;;;21.14;nan;100586.47;5091796;28;20043;-58
2022/03/21 10:13:22;;;;;;;4.65;3.70;;;;;;;21.16;nan;100584.19;5095617;28;20036;-59
2022/03/21 10:15:48;;;;;;;5.15;3.78;;;;;;;21.15;nan;100582.56;5091230;28;20038;-58
2022/03/21 10:18:15;;;;;;;5.90;3.83;;;;;;;21.14;nan;100578.13;5093918;28;20040;-58
2022/03/21 10:20:41;;;;;;;4.32;3.40;;;;;;;21.13;nan;100574.53;5097723;28;20143;-57
2022/03/21 10:23:16;;;;;;;4.88;3.50;;;;;;;21.14;nan;100575.34;5097530;28;20044;-59
2022/03/21 10:25:42;;;;;;;4.07;3.08;;;;;;;21.14;nan;100567.00;5103504;28;20048;-59
2022/03/21 10:28:07;;;;;;;4.43;3.13;;;;;;;21.12;nan;100563.75;5089905;28;20044;-58
2022/03/21 10:30:40;;;;;;;5.18;3.35;;;;;;;21.12;nan;100566.53;5080251;28;20044;-58
2022/03/21 10:33:06;;;;;;;4.68;3.38;;;;;;;21.13;nan;100562.59;5103410;28;20075;-58
2022/03/21 10:35:32;;;;;;;4.53;3.60;;;;;;;21.16;nan;100557.16;5093433;28;20059;-58
2022/03/21 10:38:00;;;;;;;4.70;3.40;;;;;;;21.14;nan;100556.69;5099345;28;20047;-59
2022/03/21 10:40:40;;;;;;;4.43;2.97;;;;;;;21.15;nan;100552.75;5091423;28;20415;-58
2022/03/21 10:43:14;;;;;;;5.20;3.42;;;;;;;21.15;nan;100543.59;5100074;28;20075;-58
2022/03/21 10:45:45;;;;;;;4.25;3.42;;;;;;;21.16;nan;100540.47;5101156;28;20410;-58
2022/03/21 10:48:18;;;;;;;5.75;3.85;;;;;;;21.16;nan;100536.88;5100340;28;20062;-59
2022/03/21 10:50:49;;;;;;;4.43;3.33;;;;;;;21.17;nan;100530.97;5102372;28;20067;-58
2022/03/21 10:53:23;;;;;;;6.55;3.55;;;;;;;21.17;nan;100530.97;5101029;28;20127;-58
2022/03/21 10:55:59;;;;;;;5.43;3.05;;;;;;;21.20;nan;100532.22;5091782;28;20052;-58
2022/03/21 10:58:47;;;;;;;5.53;3.20;;;;;;;21.19;nan;100522.25;5094280;28;20028;-58
2022/03/21 11:01:14;;;;;;;4.88;3.13;;;;;;;21.20;nan;100520.28;5095024;28;20045;-58
2022/03/21 11:03:41;;;;;;;4.13;2.88;;;;;;;21.23;nan;100500.94;5095220;28;20069;-60
2022/03/21 11:06:11;;;;;;;5.05;3.10;;;;;;;21.28;nan;100503.47;5096918;28;20162;-58
2022/03/21 11:08:37;;;;;;;3.70;2.70;;;;;;;21.28;nan;100502.66;5099558;28;20131;-59
2022/03/21 11:11:03;;;;;;;5.90;3.28;;;;;;;21.25;nan;100489.44;5102872;28;20075;-58
2022/03/21 11:13:30;;;;;;;4.20;3.13;;;;;;;21.24;nan;100493.38;5096391;28;20495;-59
2022/03/21 11:15:56;;;;;;;4.40;3.00;;;;;;;21.22;nan;100487.34;5097970;28;20039;-59
2022/03/21 11:18:23;;;;;;;5.65;3.17;;;;;;;21.21;nan;100485.72;5095714;28;20538;-60
2022/03/21 11:20:49;;;;;;;4.35;2.90;;;;;;;21.21;nan;100475.41;5096232;28;20176;-59
2022/03/21 11:23:15;;;;;;;3.95;2.80;;;;;;;21.24;nan;100479.47;5098549;28;20069;-60
2022/03/21 11:25:48;;;;;;;6.35;3.10;;;;;;;21.23;nan;100467.53;5098217;28;20047;-59
2022/03/21 11:28:49;;;;;;;4.00;2.65;;;;;;;21.23;nan;100458.38;5096598;28;20636;-59
2022/03/21 11:31:31;;;;;;;4.32;2.95;;;;;;;21.20;nan;100454.31;5018498;28;20050;-59
2022/03/21 11:34:18;;;;;;;3.85;2.78;;;;;;;21.18;nan;100445.50;5019427;28;20048;-59
2022/03/21 11:36:55;;;;;;;4.03;2.60;;;;;;;21.17;nan;100446.69;5017738;28;20073;-59
2022/03/21 11:39:21;;;;;;;3.65;2.47;;;;;;;21.18;nan;100442.72;5021471;28;20056;-59
2022/03/21 11:42:08;;;;;;;3.90;2.72;;;;;;;21.17;nan;100446.69;5023331;28;20033;-59
2022/03/21 11:44:35;;;;;;;3.53;2.78;;;;;;;21.19;nan;100440.75;5005319;28;20045;-60
2022/03/21 11:47:26;;;;;;;4.32;3.00;;;;;;;21.14;nan;100428.69;5018757;28;20175;-59
2022/03/21 11:49:55;;;;;;;4.25;3.05;;;;;;;21.17;nan;100432.78;5020862;28;20083;-58
2022/03/21 11:52:22;;;;;;;3.67;2.50;;;;;;;21.16;nan;100425.59;5024821;28;20050;-59
2022/03/21 11:54:48;;;;;;;4.10;2.70;;;;;;;21.17;nan;100421.66;5023774;28;20507;-59
2022/03/21 11:57:17;;;;;;;3.90;2.70;;;;;;;21.13;nan;100410.41;5022240;28;20049;-59
2022/03/21 11:59:42;;;;;;;3.55;2.50;;;;;;;21.18;nan;100409.34;5019839;28;20469;-59
2022/03/21 12:02:07;;;;;;;3.80;2.70;;;;;;;21.18;nan;100398.22;5022721;28;20053;-59